Terminal Aerodrome Forecast
Issued by NWS

Home | Current Version | Previous Version | Text Only | Print | Product List | Glossary On
Versions: 1 2 3 4 5 6 7 8 9 10 11 12 13
815
FTUS43 KIND 170530
TAFLAF
TAF
KLAF 170530Z 1706/1806 21005KT P6SM FEW250
     FM171800 22007KT P6SM -SHRA OVC090
     FM180000 19005KT P6SM BKN060
     FM180200 21005KT P6SM OVC015
     FM180300 21005KT P6SM OVC008
      AMD LTD TO CLD VIS AND WIND TIL 171400=

USA.gov is the U.S. government's official web portal to all federal, state and local government web resources and services.